KSBY/SBY METAR and TAF weather

Enter ICAO airport designator
Station Type Date Time Source
KSBY METAR 2019/07/17 18:54 UTC NOAA

KSBY 171854Z 23013G19KT 10SM CLR 36/22 A2994 RMK AO2 SLP140 T03560222


Station Type Date Time Source
KSBY Decoded METAR 2019/07/17 18:54 UTC NOAA

SALISBURY-WICOMICO CTY REG, MD, United States (KSBY) 38-20N 075-30W 19M
Jul 17, 2019 - 02:54 PM EDT / 2019.07.17 1854 UTC
Wind: from the SW (230 degrees) at 15 MPH (13 KT) gusting to 22 MPH (19 KT):0
Visibility: 10 mile(s):0
Sky conditions: clear
Temperature: 96.1 F (35.6 C)
Heat index: 104.9 F (40.5 C):1
Dew Point: 72.0 F (22.2 C)
Relative Humidity: 46%
Pressure (altimeter): 29.94 in. Hg (1013 hPa)
ob: KSBY 171854Z 23013G19KT 10SM CLR 36/22 A2994 RMK AO2 SLP140 T03560222
cycle: 19

Station Type Date Time Source
KSBY TAF 2019/07/17 18:27 UTC NOAA

TAF KSBY 171725Z 1718/1818 25010KT P6SM SCT050 BKN250
FM180000 20010KT P6SM VCSH BKN050
FM180400 21004KT P6SM BKN080
FM181500 24007KT P6SM SCT050

Example: see airport list